New Smyrna, Florida
Current Conditions -  °F | °C
As of 1:50 PM on Thursday 23 Oct 2014 (Local Time) from KEVB Reporting Station
Few Clouds Few Clouds  
Wind Chill: 77°   Ceiling: Unl
Heat Index: 79°   Visibility: 10mi
Dew Point: 57°   Wind: 12mph
Humidity: 50%   Direction: 10°N
Pressure: 30.01"   Gusts: NA
Location:  28.9963°N, 80.8761°W
Report Text: KEVB 231750Z 01010KT 10SM FEW040 25/14 A3001
Loading
Personal Weather Stations






























Interactive Weather Map
Tropical Storm Tracking
New forecast layout! Learn more

10-Day Weather Forecast

Advertisements
Track Severe Weather on mobile